sensor_id;sensor_type;location;lat;lon;timestamp;temperature;humidity
21662;DHT22;10992;48.170;8.596;2022-09-30T00:00:37;6.60;99.90
21662;DHT22;10992;48.170;8.596;2022-09-30T00:03:03;6.50;99.90
21662;DHT22;10992;48.170;8.596;2022-09-30T00:05:30;6.60;99.90
21662;DHT22;10992;48.170;8.596;2022-09-30T00:07:57;6.70;99.90
21662;DHT22;10992;48.170;8.596;2022-09-30T00:10:24;6.70;99.90
21662;DHT22;10992;48.170;8.596;2022-09-30T00:12:51;6.80;99.90
21662;DHT22;10992;48.170;8.596;2022-09-30T00:15:19;6.90;99.90
21662;DHT22;10992;48.170;8.596;2022-09-30T00:17:46;6.90;99.90
21662;DHT22;10992;48.170;8.596;2022-09-30T00:20:12;6.90;99.90
21662;DHT22;10992;48.170;8.596;2022-09-30T00:22:40;6.80;99.90
21662;DHT22;10992;48.170;8.596;2022-09-30T00:25:07;6.70;99.90
21662;DHT22;10992;48.170;8.596;2022-09-30T00:27:34;6.70;99.90
21662;DHT22;10992;48.170;8.596;2022-09-30T00:30:01;6.60;99.90
21662;DHT22;10992;48.170;8.596;2022-09-30T00:32:28;6.60;99.90
21662;DHT22;10992;48.170;8.596;2022-09-30T00:34:54;6.60;99.90
21662;DHT22;10992;48.170;8.596;2022-09-30T00:37:21;6.60;99.90
21662;DHT22;10992;48.170;8.596;2022-09-30T00:39:48;6.50;99.90
21662;DHT22;10992;48.170;8.596;2022-09-30T00:42:15;6.50;99.90
21662;DHT22;10992;48.170;8.596;2022-09-30T00:44:55;6.50;99.90
21662;DHT22;10992;48.170;8.596;2022-09-30T00:50:33;6.50;99.90
21662;DHT22;10992;48.170;8.596;2022-09-30T00:53:15;6.50;99.90
21662;DHT22;10992;48.170;8.596;2022-09-30T00:55:49;6.50;99.90
21662;DHT22;10992;48.170;8.596;2022-09-30T00:58:24;6.60;99.90
21662;DHT22;10992;48.170;8.596;2022-09-30T01:00:55;6.60;99.90
21662;DHT22;10992;48.170;8.596;2022-09-30T01:03:25;6.60;99.90
21662;DHT22;10992;48.170;8.596;2022-09-30T01:05:52;6.60;99.90
21662;DHT22;10992;48.170;8.596;2022-09-30T01:08:20;6.60;99.90
21662;DHT22;10992;48.170;8.596;2022-09-30T01:10:48;6.60;99.90
21662;DHT22;10992;48.170;8.596;2022-09-30T01:13:15;6.70;99.90
21662;DHT22;10992;48.170;8.596;2022-09-30T01:19:15;6.70;99.90
21662;DHT22;10992;48.170;8.596;2022-09-30T01:25:08;6.70;99.90
21662;DHT22;10992;48.170;8.596;2022-09-30T01:39:35;6.70;99.90
21662;DHT22;10992;48.170;8.596;2022-09-30T01:46:09;6.80;99.90
21662;DHT22;10992;48.170;8.596;2022-09-30T01:48:20;6.90;99.90
21662;DHT22;10992;48.170;8.596;2022-09-30T01:51:02;6.90;99.90
21662;DHT22;10992;48.170;8.596;2022-09-30T01:53:45;6.80;99.90
21662;DHT22;10992;48.170;8.596;2022-09-30T01:56:37;6.90;99.90
21662;DHT22;10992;48.170;8.596;2022-09-30T02:01:54;6.90;99.90
21662;DHT22;10992;48.170;8.596;2022-09-30T02:04:33;6.90;99.90
21662;DHT22;10992;48.170;8.596;2022-09-30T02:07:06;6.90;99.90
21662;DHT22;10992;48.170;8.596;2022-09-30T02:09:41;6.90;99.90
21662;DHT22;10992;48.170;8.596;2022-09-30T02:12:13;6.90;99.90
21662;DHT22;10992;48.170;8.596;2022-09-30T02:14:58;6.90;99.90
21662;DHT22;10992;48.170;8.596;2022-09-30T02:17:38;6.90;99.90
21662;DHT22;10992;48.170;8.596;2022-09-30T02:20:13;6.90;99.90
21662;DHT22;10992;48.170;8.596;2022-09-30T02:22:48;6.80;99.90
21662;DHT22;10992;48.170;8.596;2022-09-30T02:25:20;6.90;99.90
21662;DHT22;10992;48.170;8.596;2022-09-30T02:27:52;6.90;99.90
21662;DHT22;10992;48.170;8.596;2022-09-30T02:30:22;6.90;99.90
21662;DHT22;10992;48.170;8.596;2022-09-30T02:33:19;7.00;99.90
21662;DHT22;10992;48.170;8.596;2022-09-30T02:35:55;7.00;99.90
21662;DHT22;10992;48.170;8.596;2022-09-30T02:38:27;7.00;99.90
21662;DHT22;10992;48.170;8.596;2022-09-30T02:41:01;7.10;99.90
21662;DHT22;10992;48.170;8.596;2022-09-30T02:43:32;7.10;99.90
21662;DHT22;10992;48.170;8.596;2022-09-30T02:54:58;7.10;99.90
21662;DHT22;10992;48.170;8.596;2022-09-30T02:59:35;7.20;99.90
21662;DHT22;10992;48.170;8.596;2022-09-30T03:02:02;7.10;99.90
21662;DHT22;10992;48.170;8.596;2022-09-30T03:04:32;7.10;99.90
21662;DHT22;10992;48.170;8.596;2022-09-30T03:07:00;7.10;99.90
21662;DHT22;10992;48.170;8.596;2022-09-30T03:09:27;7.10;99.90
21662;DHT22;10992;48.170;8.596;2022-09-30T03:12:04;7.10;99.90
21662;DHT22;10992;48.170;8.596;2022-09-30T03:14:44;7.10;99.90
21662;DHT22;10992;48.170;8.596;2022-09-30T03:17:33;7.20;99.90
21662;DHT22;10992;48.170;8.596;2022-09-30T03:20:22;7.20;99.90
21662;DHT22;10992;48.170;8.596;2022-09-30T03:23:15;7.10;99.90
21662;DHT22;10992;48.170;8.596;2022-09-30T03:26:17;7.00;99.90
21662;DHT22;10992;48.170;8.596;2022-09-30T03:34:26;7.00;99.90
21662;DHT22;10992;48.170;8.596;2022-09-30T03:42:23;6.90;99.90
21662;DHT22;10992;48.170;8.596;2022-09-30T03:45:01;6.90;99.90
21662;DHT22;10992;48.170;8.596;2022-09-30T03:47:33;6.90;99.90
21662;DHT22;10992;48.170;8.596;2022-09-30T03:50:05;6.90;99.90
21662;DHT22;10992;48.170;8.596;2022-09-30T03:52:33;6.90;99.90
21662;DHT22;10992;48.170;8.596;2022-09-30T03:55:03;6.90;99.90
21662;DHT22;10992;48.170;8.596;2022-09-30T03:57:30;6.80;99.90
21662;DHT22;10992;48.170;8.596;2022-09-30T03:59:58;6.80;99.90
21662;DHT22;10992;48.170;8.596;2022-09-30T04:02:26;6.70;99.90
21662;DHT22;10992;48.170;8.596;2022-09-30T04:04:53;6.70;99.90
21662;DHT22;10992;48.170;8.596;2022-09-30T04:07:20;6.80;99.90
21662;DHT22;10992;48.170;8.596;2022-09-30T04:09:46;6.80;99.90
21662;DHT22;10992;48.170;8.596;2022-09-30T04:12:13;6.80;99.90
21662;DHT22;10992;48.170;8.596;2022-09-30T04:14:40;6.70;99.90
21662;DHT22;10992;48.170;8.596;2022-09-30T04:17:07;6.70;99.90
21662;DHT22;10992;48.170;8.596;2022-09-30T04:19:34;6.70;99.90
21662;DHT22;10992;48.170;8.596;2022-09-30T04:22:06;6.80;99.90
21662;DHT22;10992;48.170;8.596;2022-09-30T04:24:34;6.70;99.90
21662;DHT22;10992;48.170;8.596;2022-09-30T04:27:02;6.70;99.90
21662;DHT22;10992;48.170;8.596;2022-09-30T04:29:29;6.80;99.90
21662;DHT22;10992;48.170;8.596;2022-09-30T04:31:56;6.80;99.90
21662;DHT22;10992;48.170;8.596;2022-09-30T04:34:23;6.80;99.90
21662;DHT22;10992;48.170;8.596;2022-09-30T04:36:50;6.70;99.90
21662;DHT22;10992;48.170;8.596;2022-09-30T04:39:16;6.70;99.90
21662;DHT22;10992;48.170;8.596;2022-09-30T04:41:43;6.80;99.90
21662;DHT22;10992;48.170;8.596;2022-09-30T04:44:10;6.80;99.90
21662;DHT22;10992;48.170;8.596;2022-09-30T04:46:39;6.80;99.90
21662;DHT22;10992;48.170;8.596;2022-09-30T04:49:06;6.70;99.90
21662;DHT22;10992;48.170;8.596;2022-09-30T04:51:35;6.70;99.90
21662;DHT22;10992;48.170;8.596;2022-09-30T04:54:02;6.70;99.90
21662;DHT22;10992;48.170;8.596;2022-09-30T04:56:29;6.70;99.90
21662;DHT22;10992;48.170;8.596;2022-09-30T04:58:56;6.70;99.90
21662;DHT22;10992;48.170;8.596;2022-09-30T05:01:23;6.70;99.90
21662;DHT22;10992;48.170;8.596;2022-09-30T05:03:50;6.70;99.90
21662;DHT22;10992;48.170;8.596;2022-09-30T05:06:17;6.80;99.90
21662;DHT22;10992;48.170;8.596;2022-09-30T05:08:46;6.80;99.90
21662;DHT22;10992;48.170;8.596;2022-09-30T05:11:18;6.80;99.90
21662;DHT22;10992;48.170;8.596;2022-09-30T05:13:45;6.70;99.90
21662;DHT22;10992;48.170;8.596;2022-09-30T05:16:14;6.80;99.90
21662;DHT22;10992;48.170;8.596;2022-09-30T05:18:42;6.70;99.90
21662;DHT22;10992;48.170;8.596;2022-09-30T05:21:16;6.70;99.90
21662;DHT22;10992;48.170;8.596;2022-09-30T05:23:43;6.70;99.90
21662;DHT22;10992;48.170;8.596;2022-09-30T05:26:10;6.70;99.90
21662;DHT22;10992;48.170;8.596;2022-09-30T05:28:39;6.70;99.90
21662;DHT22;10992;48.170;8.596;2022-09-30T05:31:06;6.70;99.90
21662;DHT22;10992;48.170;8.596;2022-09-30T05:33:34;6.60;99.90
21662;DHT22;10992;48.170;8.596;2022-09-30T05:36:06;6.60;99.90
21662;DHT22;10992;48.170;8.596;2022-09-30T05:38:34;6.60;99.90
21662;DHT22;10992;48.170;8.596;2022-09-30T05:41:08;6.60;99.90
21662;DHT22;10992;48.170;8.596;2022-09-30T05:43:38;6.60;99.90
21662;DHT22;10992;48.170;8.596;2022-09-30T05:46:05;6.50;99.90
21662;DHT22;10992;48.170;8.596;2022-09-30T05:48:32;6.60;99.90
21662;DHT22;10992;48.170;8.596;2022-09-30T05:51:00;6.70;99.90
21662;DHT22;10992;48.170;8.596;2022-09-30T05:53:28;6.70;99.90
21662;DHT22;10992;48.170;8.596;2022-09-30T05:55:57;6.60;99.90
21662;DHT22;10992;48.170;8.596;2022-09-30T05:58:25;6.60;99.90
21662;DHT22;10992;48.170;8.596;2022-09-30T06:00:53;6.60;99.90
21662;DHT22;10992;48.170;8.596;2022-09-30T06:03:20;6.60;99.90
21662;DHT22;10992;48.170;8.596;2022-09-30T06:05:47;6.60;99.90
21662;DHT22;10992;48.170;8.596;2022-09-30T06:08:14;6.50;99.90
21662;DHT22;10992;48.170;8.596;2022-09-30T06:10:42;6.60;99.90
21662;DHT22;10992;48.170;8.596;2022-09-30T06:13:10;6.80;99.90
21662;DHT22;10992;48.170;8.596;2022-09-30T06:15:37;6.80;99.90
21662;DHT22;10992;48.170;8.596;2022-09-30T06:18:05;6.90;99.90
21662;DHT22;10992;48.170;8.596;2022-09-30T06:20:32;6.90;99.90
21662;DHT22;10992;48.170;8.596;2022-09-30T06:23:00;6.90;99.90
21662;DHT22;10992;48.170;8.596;2022-09-30T06:25:28;6.90;99.90
21662;DHT22;10992;48.170;8.596;2022-09-30T06:27:55;6.90;99.90
21662;DHT22;10992;48.170;8.596;2022-09-30T06:30:22;6.90;99.90
21662;DHT22;10992;48.170;8.596;2022-09-30T06:32:49;7.00;99.90
21662;DHT22;10992;48.170;8.596;2022-09-30T06:35:17;7.00;99.90
21662;DHT22;10992;48.170;8.596;2022-09-30T06:37:45;7.00;99.90
21662;DHT22;10992;48.170;8.596;2022-09-30T06:40:11;7.10;99.90
21662;DHT22;10992;48.170;8.596;2022-09-30T06:42:38;7.10;99.90
21662;DHT22;10992;48.170;8.596;2022-09-30T06:45:06;7.00;99.90
21662;DHT22;10992;48.170;8.596;2022-09-30T06:47:33;7.10;99.90
21662;DHT22;10992;48.170;8.596;2022-09-30T06:50:00;7.10;99.90
21662;DHT22;10992;48.170;8.596;2022-09-30T06:52:28;7.20;99.90
21662;DHT22;10992;48.170;8.596;2022-09-30T06:54:55;7.20;99.90
21662;DHT22;10992;48.170;8.596;2022-09-30T06:57:25;7.30;99.90
21662;DHT22;10992;48.170;8.596;2022-09-30T06:59:53;7.40;99.90
21662;DHT22;10992;48.170;8.596;2022-09-30T07:02:20;7.40;99.90
21662;DHT22;10992;48.170;8.596;2022-09-30T07:04:47;7.50;99.90
21662;DHT22;10992;48.170;8.596;2022-09-30T07:07:14;7.70;99.90
21662;DHT22;10992;48.170;8.596;2022-09-30T07:09:41;7.70;99.90
21662;DHT22;10992;48.170;8.596;2022-09-30T07:12:09;7.70;99.90
21662;DHT22;10992;48.170;8.596;2022-09-30T07:14:35;7.70;99.90
21662;DHT22;10992;48.170;8.596;2022-09-30T07:17:04;7.70;99.90
21662;DHT22;10992;48.170;8.596;2022-09-30T07:19:38;7.80;99.90
21662;DHT22;10992;48.170;8.596;2022-09-30T07:22:05;7.70;99.90
21662;DHT22;10992;48.170;8.596;2022-09-30T07:24:50;7.80;99.90
21662;DHT22;10992;48.170;8.596;2022-09-30T07:27:17;7.90;99.90
21662;DHT22;10992;48.170;8.596;2022-09-30T07:29:44;8.00;99.90
21662;DHT22;10992;48.170;8.596;2022-09-30T07:32:31;8.00;99.90
21662;DHT22;10992;48.170;8.596;2022-09-30T07:34:58;8.20;99.90
21662;DHT22;10992;48.170;8.596;2022-09-30T07:37:25;8.30;99.90
21662;DHT22;10992;48.170;8.596;2022-09-30T07:39:52;8.50;99.90
21662;DHT22;10992;48.170;8.596;2022-09-30T07:42:19;8.60;99.90
21662;DHT22;10992;48.170;8.596;2022-09-30T07:44:49;8.80;99.90
21662;DHT22;10992;48.170;8.596;2022-09-30T07:47:18;9.10;99.90
21662;DHT22;10992;48.170;8.596;2022-09-30T07:49:46;9.30;99.90
21662;DHT22;10992;48.170;8.596;2022-09-30T07:52:13;9.40;99.90
21662;DHT22;10992;48.170;8.596;2022-09-30T07:54:40;9.50;99.90
21662;DHT22;10992;48.170;8.596;2022-09-30T07:57:13;9.50;99.90
21662;DHT22;10992;48.170;8.596;2022-09-30T07:59:40;9.60;99.90
21662;DHT22;10992;48.170;8.596;2022-09-30T08:02:14;9.60;99.90
21662;DHT22;10992;48.170;8.596;2022-09-30T08:04:42;9.50;99.90
21662;DHT22;10992;48.170;8.596;2022-09-30T08:07:12;9.60;99.90
21662;DHT22;10992;48.170;8.596;2022-09-30T08:09:39;9.80;99.90
21662;DHT22;10992;48.170;8.596;2022-09-30T08:12:06;9.70;99.90
21662;DHT22;10992;48.170;8.596;2022-09-30T08:14:33;9.70;99.90
21662;DHT22;10992;48.170;8.596;2022-09-30T08:17:00;9.60;99.90
21662;DHT22;10992;48.170;8.596;2022-09-30T08:19:31;9.60;99.90
21662;DHT22;10992;48.170;8.596;2022-09-30T08:22:00;9.60;99.90
21662;DHT22;10992;48.170;8.596;2022-09-30T08:24:32;9.70;99.90
21662;DHT22;10992;48.170;8.596;2022-09-30T08:26:58;9.90;99.90
21662;DHT22;10992;48.170;8.596;2022-09-30T08:29:25;10.00;99.90
21662;DHT22;10992;48.170;8.596;2022-09-30T08:32:12;10.30;99.90
21662;DHT22;10992;48.170;8.596;2022-09-30T08:34:39;10.80;99.90
21662;DHT22;10992;48.170;8.596;2022-09-30T08:37:06;11.10;99.90
21662;DHT22;10992;48.170;8.596;2022-09-30T08:39:37;11.60;99.90
21662;DHT22;10992;48.170;8.596;2022-09-30T08:42:16;11.60;99.90
21662;DHT22;10992;48.170;8.596;2022-09-30T08:50:44;10.70;99.90
21662;DHT22;10992;48.170;8.596;2022-09-30T08:53:25;11.10;99.90
21662;DHT22;10992;48.170;8.596;2022-09-30T08:55:56;11.40;99.90
21662;DHT22;10992;48.170;8.596;2022-09-30T08:58:34;11.50;99.90
21662;DHT22;10992;48.170;8.596;2022-09-30T09:01:19;11.30;99.90
21662;DHT22;10992;48.170;8.596;2022-09-30T09:03:49;11.10;99.90
21662;DHT22;10992;48.170;8.596;2022-09-30T09:12:20;11.20;99.90
21662;DHT22;10992;48.170;8.596;2022-09-30T09:23:38;11.80;99.90
21662;DHT22;10992;48.170;8.596;2022-09-30T09:26:08;11.90;99.90
21662;DHT22;10992;48.170;8.596;2022-09-30T09:31:27;12.00;99.90
21662;DHT22;10992;48.170;8.596;2022-09-30T09:34:00;12.10;99.90
21662;DHT22;10992;48.170;8.596;2022-09-30T09:39:36;12.30;99.90
21662;DHT22;10992;48.170;8.596;2022-09-30T09:45:05;12.40;99.90
21662;DHT22;10992;48.170;8.596;2022-09-30T09:47:36;12.50;99.90
21662;DHT22;10992;48.170;8.596;2022-09-30T09:50:15;12.40;99.90
21662;DHT22;10992;48.170;8.596;2022-09-30T09:55:18;13.00;99.90
21662;DHT22;10992;48.170;8.596;2022-09-30T09:57:46;13.10;99.90
21662;DHT22;10992;48.170;8.596;2022-09-30T10:00:24;12.70;99.90
21662;DHT22;10992;48.170;8.596;2022-09-30T10:03:23;13.10;99.90
21662;DHT22;10992;48.170;8.596;2022-09-30T10:08:36;14.40;99.90
21662;DHT22;10992;48.170;8.596;2022-09-30T10:11:06;14.60;99.90
21662;DHT22;10992;48.170;8.596;2022-09-30T10:13:44;15.60;99.90
21662;DHT22;10992;48.170;8.596;2022-09-30T10:16:34;16.60;99.90
21662;DHT22;10992;48.170;8.596;2022-09-30T10:19:15;16.60;99.90
21662;DHT22;10992;48.170;8.596;2022-09-30T10:21:43;15.80;99.90
21662;DHT22;10992;48.170;8.596;2022-09-30T10:24:27;15.50;99.90
21662;DHT22;10992;48.170;8.596;2022-09-30T10:26:55;15.50;99.90
21662;DHT22;10992;48.170;8.596;2022-09-30T10:29:33;15.50;99.90
21662;DHT22;10992;48.170;8.596;2022-09-30T10:32:07;15.90;99.90
21662;DHT22;10992;48.170;8.596;2022-09-30T10:34:39;15.40;99.90
21662;DHT22;10992;48.170;8.596;2022-09-30T10:37:20;15.80;99.90
21662;DHT22;10992;48.170;8.596;2022-09-30T10:40:02;15.50;99.90
21662;DHT22;10992;48.170;8.596;2022-09-30T10:42:33;14.80;99.90
21662;DHT22;10992;48.170;8.596;2022-09-30T10:45:19;14.20;99.90
21662;DHT22;10992;48.170;8.596;2022-09-30T10:47:50;14.60;99.90
21662;DHT22;10992;48.170;8.596;2022-09-30T10:50:25;15.00;99.90
21662;DHT22;10992;48.170;8.596;2022-09-30T10:52:59;14.60;99.90
21662;DHT22;10992;48.170;8.596;2022-09-30T10:55:32;16.10;99.90
21662;DHT22;10992;48.170;8.596;2022-09-30T11:04:13;17.30;99.90
21662;DHT22;10992;48.170;8.596;2022-09-30T11:06:44;16.90;99.90
21662;DHT22;10992;48.170;8.596;2022-09-30T11:09:25;16.80;99.90
21662;DHT22;10992;48.170;8.596;2022-09-30T11:12:09;17.20;99.90
21662;DHT22;10992;48.170;8.596;2022-09-30T11:15:33;18.30;99.90
21662;DHT22;10992;48.170;8.596;2022-09-30T11:17:41;18.00;99.90
21662;DHT22;10992;48.170;8.596;2022-09-30T11:20:34;18.30;99.90
21662;DHT22;10992;48.170;8.596;2022-09-30T11:23:05;18.70;99.90
21662;DHT22;10992;48.170;8.596;2022-09-30T11:25:53;18.90;99.90
21662;DHT22;10992;48.170;8.596;2022-09-30T11:31:32;16.60;99.90
21662;DHT22;10992;48.170;8.596;2022-09-30T11:34:34;17.50;99.90
21662;DHT22;10992;48.170;8.596;2022-09-30T11:42:51;16.90;99.90
21662;DHT22;10992;48.170;8.596;2022-09-30T11:48:29;16.80;99.90
21662;DHT22;10992;48.170;8.596;2022-09-30T11:56:45;16.30;99.90
21662;DHT22;10992;48.170;8.596;2022-09-30T11:59:25;16.40;99.90
21662;DHT22;10992;48.170;8.596;2022-09-30T12:01:54;16.50;99.90
21662;DHT22;10992;48.170;8.596;2022-09-30T12:04:31;17.20;99.90
21662;DHT22;10992;48.170;8.596;2022-09-30T12:07:02;17.50;99.90
21662;DHT22;10992;48.170;8.596;2022-09-30T12:09:56;17.50;99.90
21662;DHT22;10992;48.170;8.596;2022-09-30T12:12:25;17.60;99.90
21662;DHT22;10992;48.170;8.596;2022-09-30T12:15:05;17.30;99.90
21662;DHT22;10992;48.170;8.596;2022-09-30T12:17:34;16.20;99.90
21662;DHT22;10992;48.170;8.596;2022-09-30T12:23:25;16.30;99.90
21662;DHT22;10992;48.170;8.596;2022-09-30T12:25:57;16.60;99.90
21662;DHT22;10992;48.170;8.596;2022-09-30T12:29:05;17.60;99.90
21662;DHT22;10992;48.170;8.596;2022-09-30T12:31:59;17.10;99.90
21662;DHT22;10992;48.170;8.596;2022-09-30T12:37:34;18.40;99.90
21662;DHT22;10992;48.170;8.596;2022-09-30T12:40:13;19.90;99.90
21662;DHT22;10992;48.170;8.596;2022-09-30T12:46:18;19.20;99.90
21662;DHT22;10992;48.170;8.596;2022-09-30T12:48:54;18.70;99.90
21662;DHT22;10992;48.170;8.596;2022-09-30T12:51:30;19.60;99.90
21662;DHT22;10992;48.170;8.596;2022-09-30T12:54:13;19.60;99.90
21662;DHT22;10992;48.170;8.596;2022-09-30T12:56:43;20.00;99.90
21662;DHT22;10992;48.170;8.596;2022-09-30T12:59:12;20.30;99.90
21662;DHT22;10992;48.170;8.596;2022-09-30T13:01:40;20.50;99.90
21662;DHT22;10992;48.170;8.596;2022-09-30T13:11:47;21.30;99.90
21662;DHT22;10992;48.170;8.596;2022-09-30T13:30:00;17.30;99.90
21662;DHT22;10992;48.170;8.596;2022-09-30T13:32:32;16.60;99.90
21662;DHT22;10992;48.170;8.596;2022-09-30T13:34:59;16.10;99.90
21662;DHT22;10992;48.170;8.596;2022-09-30T13:37:35;15.40;99.90
21662;DHT22;10992;48.170;8.596;2022-09-30T13:40:14;15.20;99.90
21662;DHT22;10992;48.170;8.596;2022-09-30T13:42:47;14.60;99.90
21662;DHT22;10992;48.170;8.596;2022-09-30T13:45:29;14.50;99.90
21662;DHT22;10992;48.170;8.596;2022-09-30T13:48:15;14.30;99.90
21662;DHT22;10992;48.170;8.596;2022-09-30T13:50:46;14.20;99.90
21662;DHT22;10992;48.170;8.596;2022-09-30T13:53:38;14.00;99.90
21662;DHT22;10992;48.170;8.596;2022-09-30T13:56:10;13.90;99.90
21662;DHT22;10992;48.170;8.596;2022-09-30T13:59:02;13.80;99.90
21662;DHT22;10992;48.170;8.596;2022-09-30T14:09:58;13.30;99.90
21662;DHT22;10992;48.170;8.596;2022-09-30T14:18:21;13.10;99.90
21662;DHT22;10992;48.170;8.596;2022-09-30T14:21:17;13.20;99.90
21662;DHT22;10992;48.170;8.596;2022-09-30T14:23:56;13.30;99.90
21662;DHT22;10992;48.170;8.596;2022-09-30T14:31:44;13.40;99.90
21662;DHT22;10992;48.170;8.596;2022-09-30T14:34:13;13.50;99.90
21662;DHT22;10992;48.170;8.596;2022-09-30T14:36:41;13.50;99.90
21662;DHT22;10992;48.170;8.596;2022-09-30T14:39:17;13.60;99.90
21662;DHT22;10992;48.170;8.596;2022-09-30T14:41:56;13.70;99.90
21662;DHT22;10992;48.170;8.596;2022-09-30T14:44:30;13.80;99.90
21662;DHT22;10992;48.170;8.596;2022-09-30T14:47:00;13.90;99.90
21662;DHT22;10992;48.170;8.596;2022-09-30T14:49:31;13.90;99.90
21662;DHT22;10992;48.170;8.596;2022-09-30T14:52:01;14.00;99.90
21662;DHT22;10992;48.170;8.596;2022-09-30T14:54:32;14.10;99.90
21662;DHT22;10992;48.170;8.596;2022-09-30T14:57:01;14.10;99.90
21662;DHT22;10992;48.170;8.596;2022-09-30T14:59:30;14.10;99.90
21662;DHT22;10992;48.170;8.596;2022-09-30T15:02:02;13.60;99.90
21662;DHT22;10992;48.170;8.596;2022-09-30T15:04:36;13.80;99.90
21662;DHT22;10992;48.170;8.596;2022-09-30T15:07:09;13.80;99.90
21662;DHT22;10992;48.170;8.596;2022-09-30T15:09:38;13.90;99.90
21662;DHT22;10992;48.170;8.596;2022-09-30T15:12:12;14.10;99.90
21662;DHT22;10992;48.170;8.596;2022-09-30T15:17:22;14.00;99.90
21662;DHT22;10992;48.170;8.596;2022-09-30T15:19:50;14.00;99.90
21662;DHT22;10992;48.170;8.596;2022-09-30T15:22:18;14.40;99.90
21662;DHT22;10992;48.170;8.596;2022-09-30T15:24:47;14.60;99.90
21662;DHT22;10992;48.170;8.596;2022-09-30T15:27:28;14.40;99.90
21662;DHT22;10992;48.170;8.596;2022-09-30T15:30:02;14.70;99.90
21662;DHT22;10992;48.170;8.596;2022-09-30T15:32:33;14.70;99.90
21662;DHT22;10992;48.170;8.596;2022-09-30T15:35:05;14.70;99.90
21662;DHT22;10992;48.170;8.596;2022-09-30T15:37:32;14.70;99.90
21662;DHT22;10992;48.170;8.596;2022-09-30T15:40:00;14.30;99.90
21662;DHT22;10992;48.170;8.596;2022-09-30T15:42:57;14.20;99.90
21662;DHT22;10992;48.170;8.596;2022-09-30T15:45:29;14.10;99.90
21662;DHT22;10992;48.170;8.596;2022-09-30T15:48:04;14.60;99.90
21662;DHT22;10992;48.170;8.596;2022-09-30T15:50:45;14.80;99.90
21662;DHT22;10992;48.170;8.596;2022-09-30T15:55:52;15.10;99.90
21662;DHT22;10992;48.170;8.596;2022-09-30T15:58:38;15.00;99.90
21662;DHT22;10992;48.170;8.596;2022-09-30T16:01:18;14.20;99.90
21662;DHT22;10992;48.170;8.596;2022-09-30T16:04:03;13.50;99.90
21662;DHT22;10992;48.170;8.596;2022-09-30T16:09:29;13.20;99.90
21662;DHT22;10992;48.170;8.596;2022-09-30T16:11:59;13.00;99.90
21662;DHT22;10992;48.170;8.596;2022-09-30T16:14:49;12.80;99.90
21662;DHT22;10992;48.170;8.596;2022-09-30T16:17:23;12.70;99.90
21662;DHT22;10992;48.170;8.596;2022-09-30T16:19:59;12.70;99.90
21662;DHT22;10992;48.170;8.596;2022-09-30T16:27:36;12.00;99.90
21662;DHT22;10992;48.170;8.596;2022-09-30T16:30:06;12.00;99.90
21662;DHT22;10992;48.170;8.596;2022-09-30T16:32:40;12.00;99.90
21662;DHT22;10992;48.170;8.596;2022-09-30T16:35:18;11.90;99.90
21662;DHT22;10992;48.170;8.596;2022-09-30T16:37:45;11.80;99.90
21662;DHT22;10992;48.170;8.596;2022-09-30T16:40:32;11.60;99.90
21662;DHT22;10992;48.170;8.596;2022-09-30T16:43:01;11.60;99.90
21662;DHT22;10992;48.170;8.596;2022-09-30T16:45:33;11.60;99.90
21662;DHT22;10992;48.170;8.596;2022-09-30T16:48:04;11.50;99.90
21662;DHT22;10992;48.170;8.596;2022-09-30T16:50:40;11.40;99.90
21662;DHT22;10992;48.170;8.596;2022-09-30T16:53:09;11.40;99.90
21662;DHT22;10992;48.170;8.596;2022-09-30T16:55:36;11.40;99.90
21662;DHT22;10992;48.170;8.596;2022-09-30T16:58:03;11.30;99.90
21662;DHT22;10992;48.170;8.596;2022-09-30T17:00:31;11.20;99.90
21662;DHT22;10992;48.170;8.596;2022-09-30T17:02:58;11.10;99.90
21662;DHT22;10992;48.170;8.596;2022-09-30T17:05:25;11.00;99.90
21662;DHT22;10992;48.170;8.596;2022-09-30T17:07:55;11.00;99.90
21662;DHT22;10992;48.170;8.596;2022-09-30T17:10:30;11.00;99.90
21662;DHT22;10992;48.170;8.596;2022-09-30T17:12:58;10.90;99.90
21662;DHT22;10992;48.170;8.596;2022-09-30T17:15:31;10.80;99.90
21662;DHT22;10992;48.170;8.596;2022-09-30T17:18:02;10.80;99.90
21662;DHT22;10992;48.170;8.596;2022-09-30T17:20:29;10.80;99.90
21662;DHT22;10992;48.170;8.596;2022-09-30T17:22:56;10.80;99.90
21662;DHT22;10992;48.170;8.596;2022-09-30T17:25:23;10.80;99.90
21662;DHT22;10992;48.170;8.596;2022-09-30T17:27:50;10.70;99.90
21662;DHT22;10992;48.170;8.596;2022-09-30T17:30:18;10.70;99.90
21662;DHT22;10992;48.170;8.596;2022-09-30T17:32:45;10.60;99.90
21662;DHT22;10992;48.170;8.596;2022-09-30T17:35:15;10.60;99.90
21662;DHT22;10992;48.170;8.596;2022-09-30T17:37:43;10.60;99.90
21662;DHT22;10992;48.170;8.596;2022-09-30T17:40:12;10.60;99.90
21662;DHT22;10992;48.170;8.596;2022-09-30T17:42:58;10.60;99.90
21662;DHT22;10992;48.170;8.596;2022-09-30T17:45:43;10.60;99.90
21662;DHT22;10992;48.170;8.596;2022-09-30T17:48:13;10.60;99.90
21662;DHT22;10992;48.170;8.596;2022-09-30T17:50:43;10.60;99.90
21662;DHT22;10992;48.170;8.596;2022-09-30T17:53:12;10.50;99.90
21662;DHT22;10992;48.170;8.596;2022-09-30T17:55:40;10.50;99.90
21662;DHT22;10992;48.170;8.596;2022-09-30T17:58:07;10.40;99.90
21662;DHT22;10992;48.170;8.596;2022-09-30T18:00:35;10.40;99.90
21662;DHT22;10992;48.170;8.596;2022-09-30T18:03:03;10.40;99.90
21662;DHT22;10992;48.170;8.596;2022-09-30T18:05:31;10.40;99.90
21662;DHT22;10992;48.170;8.596;2022-09-30T18:08:01;10.40;99.90
21662;DHT22;10992;48.170;8.596;2022-09-30T18:10:29;10.30;99.90
21662;DHT22;10992;48.170;8.596;2022-09-30T18:12:55;10.20;99.90
21662;DHT22;10992;48.170;8.596;2022-09-30T18:15:22;10.20;99.90
21662;DHT22;10992;48.170;8.596;2022-09-30T18:17:49;10.20;99.90
21662;DHT22;10992;48.170;8.596;2022-09-30T18:20:16;10.10;99.90
21662;DHT22;10992;48.170;8.596;2022-09-30T18:22:49;10.20;99.90
21662;DHT22;10992;48.170;8.596;2022-09-30T18:25:15;10.10;99.90
21662;DHT22;10992;48.170;8.596;2022-09-30T18:27:55;10.10;99.90
21662;DHT22;10992;48.170;8.596;2022-09-30T18:30:23;10.10;99.90
21662;DHT22;10992;48.170;8.596;2022-09-30T18:32:52;10.10;99.90
21662;DHT22;10992;48.170;8.596;2022-09-30T18:35:21;10.10;99.90
21662;DHT22;10992;48.170;8.596;2022-09-30T18:37:51;10.10;99.90
21662;DHT22;10992;48.170;8.596;2022-09-30T18:40:23;10.20;99.90
21662;DHT22;10992;48.170;8.596;2022-09-30T18:42:53;10.20;99.90
21662;DHT22;10992;48.170;8.596;2022-09-30T18:45:28;10.20;99.90
21662;DHT22;10992;48.170;8.596;2022-09-30T18:47:59;10.20;99.90
21662;DHT22;10992;48.170;8.596;2022-09-30T18:50:28;10.20;99.90
21662;DHT22;10992;48.170;8.596;2022-09-30T18:52:56;10.20;99.90
21662;DHT22;10992;48.170;8.596;2022-09-30T18:55:23;10.20;99.90
21662;DHT22;10992;48.170;8.596;2022-09-30T18:57:54;10.20;99.90
21662;DHT22;10992;48.170;8.596;2022-09-30T19:00:21;10.20;99.90
21662;DHT22;10992;48.170;8.596;2022-09-30T19:02:50;10.10;99.90